createdAt,value
2022-12-31T11:37:49.738Z,97876.97
2022-12-31T11:40:54.071Z,97869.50
2022-12-31T11:43:30.681Z,97881.66
2022-12-31T11:46:15.060Z,97881.47
2022-12-31T11:49:05.146Z,97871.81
2022-12-31T11:51:50.423Z,97877.06
2022-12-31T11:54:47.754Z,97872.50
2022-12-31T11:57:24.643Z,97886.69
2022-12-31T11:59:57.704Z,97896.31
2022-12-31T12:02:37.085Z,97890.94
2022-12-31T12:05:10.668Z,97908.81
2022-12-31T12:07:37.857Z,97886.56
2022-12-31T12:10:16.879Z,97888.19
2022-12-31T12:12:43.657Z,97893.19
2022-12-31T12:15:18.214Z,97890.78
2022-12-31T12:17:54.732Z,97875.56
2022-12-31T12:20:29.249Z,97888.13
2022-12-31T12:22:58.165Z,97899.47
2022-12-31T12:25:27.687Z,97912.09
2022-12-31T12:27:54.562Z,97896.31
2022-12-31T12:30:26.599Z,97905.03
2022-12-31T12:32:57.403Z,97902.88
2022-12-31T12:35:28.126Z,97913.81
2022-12-31T12:38:13.453Z,97910.34
2022-12-31T12:40:40.352Z,97908.81
2022-12-31T12:43:22.498Z,97909.53
2022-12-31T12:45:52.109Z,97910.50
2022-12-31T12:48:32.654Z,97911.78
2022-12-31T12:51:00.007Z,97917.31
2022-12-31T12:54:07.889Z,97940.28
2022-12-31T12:56:51.821Z,97924.94
2022-12-31T12:59:36.279Z,97929.28
2022-12-31T13:02:28.183Z,97919.50
2022-12-31T13:05:11.006Z,97921.69
2022-12-31T13:07:43.501Z,97924.50
2022-12-31T13:10:40.778Z,97942.47
2022-12-31T13:13:41.624Z,97921.09
2022-12-31T13:16:14.048Z,97919.94
2022-12-31T13:18:51.314Z,97932.25
2022-12-31T13:21:42.770Z,97927.94
2022-12-31T13:24:38.634Z,97927.69
2022-12-31T13:27:18.076Z,97940.06
2022-12-31T13:29:49.181Z,97939.44
2022-12-31T13:32:21.675Z,97936.59
2022-12-31T13:34:53.175Z,97942.00
2022-12-31T13:37:29.057Z,97927.41
2022-12-31T13:40:02.821Z,97935.50
2022-12-31T13:42:40.426Z,97953.56
2022-12-31T13:45:17.051Z,97933.53
2022-12-31T13:47:52.841Z,97948.72
2022-12-31T13:50:22.173Z,97970.34
2022-12-31T13:53:04.723Z,97973.88
2022-12-31T13:55:40.310Z,97949.66
2022-12-31T13:58:16.516Z,97938.19
2022-12-31T14:00:55.777Z,97942.19
2022-12-31T14:03:37.730Z,97942.53
2022-12-31T14:06:17.668Z,97951.41
2022-12-31T14:08:45.377Z,97961.84
2022-12-31T14:11:11.785Z,97955.44
2022-12-31T14:13:47.235Z,97973.44
2022-12-31T14:16:28.274Z,97975.41
2022-12-31T14:19:19.524Z,97976.31
2022-12-31T14:22:06.599Z,97949.69
2022-12-31T14:24:44.570Z,97968.59
2022-12-31T14:27:29.804Z,97956.31
2022-12-31T14:29:58.934Z,97955.53
2022-12-31T14:32:34.388Z,97969.94
2022-12-31T14:35:31.329Z,97965.66
2022-12-31T14:38:22.496Z,97977.19
2022-12-31T14:40:59.894Z,97965.03
2022-12-31T14:43:54.556Z,97981.97
2022-12-31T14:46:48.567Z,97987.41
2022-12-31T14:49:33.704Z,97970.44
2022-12-31T14:52:19.653Z,97981.22
2022-12-31T14:54:46.146Z,97982.59
2022-12-31T14:57:47.482Z,97999.69
2022-12-31T15:00:28.612Z,97983.47
2022-12-31T15:03:08.263Z,97987.00
2022-12-31T15:05:37.524Z,97997.97
2022-12-31T15:08:32.395Z,97976.22
2022-12-31T15:11:14.009Z,98008.31
2022-12-31T15:13:52.815Z,97999.22
2022-12-31T15:16:43.348Z,97995.69
2022-12-31T15:19:18.742Z,98007.38
2022-12-31T15:22:02.640Z,98022.50
2022-12-31T15:24:30.858Z,98035.66
2022-12-31T15:27:00.551Z,98038.56
2022-12-31T15:29:34.419Z,98041.47
2022-12-31T15:32:04.151Z,98052.06
2022-12-31T15:34:36.392Z,98045.72
2022-12-31T15:37:06.212Z,98062.56
2022-12-31T15:39:32.642Z,98078.72
2022-12-31T15:42:36.929Z,98061.41
2022-12-31T15:45:11.787Z,98056.31
2022-12-31T15:47:48.171Z,98060.06
2022-12-31T15:50:21.852Z,98052.25
2022-12-31T15:52:57.135Z,98063.84
2022-12-31T15:55:52.057Z,98049.97
2022-12-31T15:58:23.094Z,98050.78
2022-12-31T16:01:14.437Z,98063.19
2022-12-31T16:03:54.462Z,98064.13
2022-12-31T16:06:21.333Z,98052.88
2022-12-31T16:08:49.587Z,98051.84
2022-12-31T16:11:33.129Z,98070.25
2022-12-31T16:14:06.825Z,98067.94
2022-12-31T16:16:34.116Z,98063.59
2022-12-31T16:19:00.948Z,98067.25
2022-12-31T16:21:37.175Z,98044.13
2022-12-31T16:24:26.949Z,98046.97
2022-12-31T16:26:57.007Z,98047.88
2022-12-31T16:29:24.140Z,98046.91
2022-12-31T16:31:55.986Z,98051.19
2022-12-31T16:34:26.946Z,98030.16
2022-12-31T16:36:59.851Z,98042.59
2022-12-31T16:39:41.935Z,98051.53
2022-12-31T16:42:14.469Z,98063.91
2022-12-31T16:44:41.770Z,98059.50
2022-12-31T16:47:15.211Z,98039.19
2022-12-31T16:49:42.704Z,98045.44
2022-12-31T16:52:27.176Z,98057.84
2022-12-31T16:55:00.438Z,98041.97
2022-12-31T16:57:37.258Z,98035.81
2022-12-31T17:00:06.366Z,98064.19
2022-12-31T17:02:43.349Z,98018.81
2022-12-31T17:05:22.836Z,98041.91
2022-12-31T17:07:49.444Z,98043.66
2022-12-31T17:10:15.845Z,98029.69
2022-12-31T17:13:25.405Z,98038.47
2022-12-31T17:15:41.650Z,98014.50
2022-12-31T17:18:13.650Z,98027.72
2022-12-31T17:20:42.933Z,98059.78
2022-12-31T17:23:12.624Z,98062.66
2022-12-31T17:25:39.153Z,98054.84
2022-12-31T17:28:16.651Z,98037.94
2022-12-31T17:30:43.291Z,98044.88
2022-12-31T17:33:21.945Z,98053.75
2022-12-31T17:35:54.210Z,98070.44
2022-12-31T17:38:23.767Z,98042.16
2022-12-31T17:41:16.718Z,98055.59
2022-12-31T17:43:43.589Z,98017.72
2022-12-31T17:46:14.014Z,98038.06
2022-12-31T17:48:42.526Z,98060.16
2022-12-31T17:51:09.219Z,98040.56
2022-12-31T17:53:35.791Z,98042.44
2022-12-31T17:56:06.306Z,98038.88
2022-12-31T17:58:36.588Z,98042.41
2022-12-31T18:01:06.656Z,98044.09
2022-12-31T18:03:33.450Z,98031.91
2022-12-31T18:06:00.142Z,98050.75
2022-12-31T18:08:26.626Z,98017.06
2022-12-31T18:10:54.427Z,98056.97
2022-12-31T18:13:24.064Z,98034.03
2022-12-31T18:15:50.966Z,98007.53
2022-12-31T18:18:24.567Z,98057.31
2022-12-31T18:21:01.162Z,98000.59
2022-12-31T18:23:48.588Z,98027.28
2022-12-31T18:26:20.593Z,98025.47
2022-12-31T18:28:47.518Z,98044.94
2022-12-31T18:31:23.944Z,98022.91
2022-12-31T18:33:51.984Z,98037.19
2022-12-31T18:36:21.455Z,98038.88
2022-12-31T18:38:48.245Z,98021.25
2022-12-31T18:41:18.930Z,98023.97
2022-12-31T18:43:46.361Z,98034.56
2022-12-31T18:46:14.696Z,98026.50
2022-12-31T18:48:41.910Z,98041.56
2022-12-31T18:51:16.710Z,98027.28
2022-12-31T18:53:43.480Z,98025.59
2022-12-31T18:56:16.303Z,98015.94
2022-12-31T18:58:45.505Z,98021.22
2022-12-31T19:01:30.596Z,97981.28
2022-12-31T19:03:59.918Z,98012.22
2022-12-31T19:06:27.171Z,98040.72
2022-12-31T19:08:54.220Z,98016.91
2022-12-31T19:11:21.799Z,98001.88
2022-12-31T19:13:48.959Z,98013.34
2022-12-31T19:16:15.724Z,98011.59
2022-12-31T19:18:42.547Z,98001.63
2022-12-31T19:21:15.485Z,98003.41
2022-12-31T19:23:42.026Z,98026.63
2022-12-31T19:26:15.259Z,98034.63
2022-12-31T19:28:41.975Z,98022.34
2022-12-31T19:31:08.487Z,98013.44
2022-12-31T19:33:35.041Z,98034.72
2022-12-31T19:36:02.013Z,98010.78
2022-12-31T19:38:34.445Z,98002.78
2022-12-31T19:41:01.912Z,98020.59
2022-12-31T19:43:28.399Z,98020.50
2022-12-31T19:45:54.993Z,97998.06
2022-12-31T19:48:30.264Z,98016.72
2022-12-31T19:50:59.500Z,98007.00
2022-12-31T19:53:27.906Z,97984.75
2022-12-31T19:55:54.614Z,97966.81
2022-12-31T19:58:26.063Z,97973.88
2022-12-31T20:01:02.343Z,97993.44
2022-12-31T20:03:29.985Z,97961.56
2022-12-31T20:06:08.631Z,97992.47
2022-12-31T20:08:37.609Z,98016.47
2022-12-31T20:11:12.886Z,98020.78
2022-12-31T20:13:42.322Z,98014.59
2022-12-31T20:16:11.534Z,98022.72
2022-12-31T20:18:39.115Z,98012.91
2022-12-31T20:21:13.243Z,98037.50
2022-12-31T20:23:40.183Z,98034.13
2022-12-31T20:26:06.891Z,98037.66
2022-12-31T20:28:33.366Z,98044.84
2022-12-31T20:31:05.280Z,98052.81
2022-12-31T20:33:31.728Z,98044.06
2022-12-31T20:36:02.455Z,98030.84
2022-12-31T20:38:28.999Z,98063.72
2022-12-31T20:40:57.425Z,98052.22
2022-12-31T20:43:23.907Z,98065.31
2022-12-31T20:45:50.496Z,98046.00
2022-12-31T20:48:17.081Z,98034.63
2022-12-31T20:50:43.563Z,98050.59
2022-12-31T20:53:10.093Z,98055.09
2022-12-31T20:55:38.035Z,98047.75
2022-12-31T20:58:06.153Z,98059.28
2022-12-31T21:00:32.675Z,98055.81
2022-12-31T21:03:10.476Z,98072.66
2022-12-31T21:05:55.105Z,98083.34
2022-12-31T21:08:21.821Z,98072.66
2022-12-31T21:10:50.210Z,98073.53
2022-12-31T21:13:22.941Z,98078.03
2022-12-31T21:15:50.784Z,98075.31
2022-12-31T21:18:17.616Z,98064.72
2022-12-31T21:20:51.646Z,98105.50
2022-12-31T21:23:20.206Z,98058.53
2022-12-31T21:25:50.026Z,98072.69
2022-12-31T21:28:16.551Z,98084.09
2022-12-31T21:30:43.189Z,98089.47
2022-12-31T21:33:09.675Z,98097.44
2022-12-31T21:35:50.116Z,98102.84
2022-12-31T21:38:20.121Z,98098.41
2022-12-31T21:40:46.643Z,98085.31
2022-12-31T21:43:14.185Z,98117.22
2022-12-31T21:45:41.159Z,98101.31
2022-12-31T21:48:23.369Z,98111.84
2022-12-31T21:50:53.913Z,98096.66
2022-12-31T21:53:30.522Z,98109.03
2022-12-31T21:56:09.680Z,98087.94
2022-12-31T21:58:44.854Z,98095.09
2022-12-31T22:01:52.968Z,98094.97
2022-12-31T22:04:59.624Z,98097.47
2022-12-31T22:07:06.038Z,98088.50
2022-12-31T22:09:32.706Z,98100.06
2022-12-31T22:11:59.142Z,98059.28
2022-12-31T22:14:25.605Z,98101.84
2022-12-31T22:16:52.093Z,98108.91
2022-12-31T22:19:18.574Z,98083.22
2022-12-31T22:21:54.843Z,98111.66
2022-12-31T22:27:28.183Z,98119.56
2022-12-31T22:29:56.289Z,98107.38
2022-12-31T22:32:22.947Z,98119.78
2022-12-31T22:34:49.399Z,98127.72
2022-12-31T22:37:54.440Z,98129.41
2022-12-31T22:40:03.002Z,98129.38
2022-12-31T22:42:29.594Z,98129.34
2022-12-31T22:44:56.043Z,98132.91
2022-12-31T22:47:22.601Z,98138.22
2022-12-31T22:49:49.151Z,98140.88
2022-12-31T22:52:15.584Z,98156.91
2022-12-31T22:54:42.060Z,98150.84
2022-12-31T22:57:08.640Z,98178.13
